Time;durP1;ratioP1;P1;durP2;ratioP2;P2;SDS_P1;SDS_P2;PMS_P1;PMS_P2;Temp;Humidity;BMP_temperature;BMP_pressure;BME280_temperature;BME280_humidity;BME280_pressure;Samples;Min_cycle;Max_cycle;Signal;HPM_P1;HPM_P2
2021/12/17 00:00:23;;;;;;;62.57;16.00;;;;;;;9.11;100.00;99942.38;5142080;28;20606;-66
2021/12/17 00:03:11;;;;;;;80.03;19.17;;;;;;;9.13;100.00;99942.97;5142088;28;20664;-67
2021/12/17 00:05:53;;;;;;;49.87;16.80;;;;;;;9.11;100.00;99947.72;5132640;28;20692;-65
2021/12/17 00:08:22;;;;;;;62.03;17.53;;;;;;;9.15;100.00;99940.97;5141928;28;20638;-66
2021/12/17 00:10:51;;;;;;;103.13;19.07;;;;;;;9.19;100.00;99935.00;5141940;28;20650;-67
2021/12/17 00:13:19;;;;;;;79.60;17.30;;;;;;;9.22;100.00;99931.91;5120691;28;20611;-67
2021/12/17 00:15:46;;;;;;;81.93;19.03;;;;;;;9.20;100.00;99936.66;5138575;28;20600;-66
2021/12/17 00:18:19;;;;;;;67.73;17.93;;;;;;;9.17;100.00;99934.38;5140828;28;20696;-66
2021/12/17 00:40:27;;;;;;;69.70;16.60;;;;;;;9.03;100.00;99905.28;5139897;28;20718;-66
2021/12/17 00:48:35;;;;;;;43.17;15.27;;;;;;;8.85;100.00;99899.72;5130104;28;20743;-67
2021/12/17 00:51:34;;;;;;;85.03;17.20;;;;;;;8.85;100.00;99900.53;5136471;28;20608;-66
2021/12/17 00:54:02;;;;;;;67.07;15.07;;;;;;;8.87;100.00;99895.00;5141084;28;20612;-66
2021/12/17 00:56:29;;;;;;;60.80;17.90;;;;;;;8.90;100.00;99897.25;5138147;28;20607;-69
2021/12/17 00:58:57;;;;;;;69.67;17.30;;;;;;;8.87;100.00;99893.16;5138965;27;20615;-65
2021/12/17 01:01:24;;;;;;;51.57;15.87;;;;;;;8.86;100.00;99896.03;5145575;27;20657;-66
2021/12/17 01:03:51;;;;;;;55.93;15.73;;;;;;;8.87;100.00;99892.34;5145436;27;20614;-67
2021/12/17 01:06:18;;;;;;;51.63;15.47;;;;;;;8.84;100.00;99879.44;5142159;27;20608;-66
2021/12/17 01:08:45;;;;;;;78.00;18.30;;;;;;;8.84;100.00;99876.75;5141650;27;20655;-67
2021/12/17 01:11:13;;;;;;;73.13;17.87;;;;;;;8.82;100.00;99894.81;5143750;27;21017;-66
2021/12/17 01:13:41;;;;;;;51.80;15.30;;;;;;;8.81;100.00;99899.31;5145229;27;20599;-67
2021/12/17 01:16:08;;;;;;;53.20;15.97;;;;;;;8.81;100.00;99901.16;5143353;27;20683;-66
2021/12/17 01:18:47;;;;;;;66.73;17.80;;;;;;;8.81;100.00;99901.16;5139940;27;21019;-66
2021/12/17 01:21:41;;;;;;;56.50;16.67;;;;;;;8.54;100.00;99903.75;5140373;27;20606;-67
2021/12/17 01:24:28;;;;;;;54.23;14.10;;;;;;;8.43;100.00;99901.69;5142907;27;20683;-67
2021/12/17 01:35:24;;;;;;;73.87;16.60;;;;;;;8.23;100.00;99895.47;5143100;27;20802;-66
2021/12/17 01:41:01;;;;;;;81.63;20.40;;;;;;;8.11;100.00;99905.00;5135146;27;20633;-66
2021/12/17 01:43:35;;;;;;;45.17;13.97;;;;;;;7.87;100.00;99901.00;5133733;27;20600;-66
2021/12/17 01:46:03;;;;;;;74.00;16.30;;;;;;;7.78;100.00;99912.84;5141707;27;20608;-66
2021/12/17 01:48:38;;;;;;;71.13;16.00;;;;;;;8.00;100.00;99910.91;5142801;27;20750;-65
2021/12/17 01:56:52;;;;;;;60.73;14.83;;;;;;;8.48;100.00;99904.56;5134356;27;21457;-66
2021/12/17 01:59:23;;;;;;;50.27;12.33;;;;;;;8.44;100.00;99908.66;5143894;27;20682;-67
2021/12/17 02:01:53;;;;;;;44.53;12.90;;;;;;;8.44;100.00;99915.81;5144554;27;20624;-66
2021/12/17 02:04:19;;;;;;;45.40;11.70;;;;;;;8.34;100.00;99902.06;5140857;27;20615;-65
2021/12/17 02:06:46;;;;;;;36.87;11.73;;;;;;;8.09;100.00;99904.38;5140833;27;20608;-66
2021/12/17 02:09:41;;;;;;;40.43;11.27;;;;;;;7.76;100.00;99904.25;5142878;27;20612;-66
2021/12/17 02:28:54;;;;;;;92.10;12.87;;;;;;;8.50;100.00;99891.88;5143804;27;20600;-66
2021/12/17 02:31:26;;;;;;;91.43;12.27;;;;;;;8.59;100.00;99890.66;5131566;27;20604;-65
2021/12/17 02:33:55;;;;;;;56.87;11.57;;;;;;;8.66;100.00;99885.34;5140166;27;20616;-66
2021/12/17 02:36:27;;;;;;;44.67;10.50;;;;;;;8.64;100.00;99888.22;5131550;27;20596;-66
2021/12/17 02:39:01;;;;;;;69.90;12.43;;;;;;;8.61;100.00;99880.63;5139875;27;20712;-66
2021/12/17 02:46:59;;;;;;;41.13;8.23;;;;;;;8.60;100.00;99881.63;5143009;27;20676;-66
2021/12/17 02:49:27;;;;;;;47.90;8.33;;;;;;;8.42;100.00;99891.22;5130862;27;20616;-66
2021/12/17 02:51:56;;;;;;;62.33;10.53;;;;;;;8.28;100.00;99881.56;5139881;27;20627;-65
2021/12/17 02:54:25;;;;;;;43.83;7.60;;;;;;;8.37;100.00;99881.19;5131476;27;21191;-65
2021/12/17 02:56:52;;;;;;;71.40;10.40;;;;;;;8.51;100.00;99882.84;5139795;27;20641;-66
2021/12/17 02:59:19;;;;;;;35.50;10.10;;;;;;;8.56;100.00;99875.09;5142744;27;20651;-66
2021/12/17 03:01:46;;;;;;;66.43;9.60;;;;;;;8.58;100.00;99881.03;5143198;27;20595;-65
2021/12/17 03:04:14;;;;;;;61.67;10.63;;;;;;;8.50;100.00;99878.56;5140485;27;20603;-65
2021/12/17 03:06:42;;;;;;;45.67;9.60;;;;;;;8.56;100.00;99872.44;5139501;27;20600;-65
2021/12/17 03:09:11;;;;;;;70.57;10.43;;;;;;;8.57;100.00;99865.25;5140786;27;20612;-65
2021/12/17 03:11:38;;;;;;;41.63;8.80;;;;;;;8.54;100.00;99861.13;5143073;27;20626;-65
2021/12/17 03:14:07;;;;;;;44.00;8.03;;;;;;;8.57;100.00;99868.72;5141602;27;20596;-66
2021/12/17 03:16:38;;;;;;;98.07;11.87;;;;;;;8.52;100.00;99863.19;5139308;27;20604;-66
2021/12/17 03:19:10;;;;;;;51.53;9.70;;;;;;;8.54;100.00;99878.97;5134798;27;20645;-66
2021/12/17 03:24:23;;;;;;;38.93;8.27;;;;;;;8.55;100.00;99870.78;5131010;27;20601;-66
2021/12/17 03:26:50;;;;;;;41.37;9.00;;;;;;;8.55;100.00;99865.44;5139335;27;20634;-66
2021/12/17 03:29:18;;;;;;;25.33;9.13;;;;;;;8.54;100.00;99858.47;5142114;27;20611;-65
2021/12/17 03:31:45;;;;;;;35.37;8.60;;;;;;;8.54;100.00;99860.34;5142802;27;20614;-66
2021/12/17 03:34:17;;;;;;;30.20;7.37;;;;;;;8.54;100.00;99871.78;5140339;27;20637;-65
2021/12/17 03:36:45;;;;;;;29.37;7.13;;;;;;;8.52;100.00;99868.53;5120973;28;20596;-66
2021/12/17 03:39:12;;;;;;;57.13;9.40;;;;;;;8.52;100.00;99871.19;5141169;27;20708;-66
2021/12/17 03:41:47;;;;;;;25.43;7.40;;;;;;;8.52;100.00;99889.81;5142817;27;20600;-66
2021/12/17 03:44:13;;;;;;;58.87;9.93;;;;;;;8.44;100.00;99873.22;5139923;27;20599;-65
2021/12/17 03:46:40;;;;;;;25.33;8.00;;;;;;;8.40;100.00;99869.31;5139151;27;20628;-67
2021/12/17 03:49:07;;;;;;;37.10;9.17;;;;;;;8.44;100.00;99867.91;5134462;27;20632;-66
2021/12/17 03:51:46;;;;;;;29.93;8.60;;;;;;;8.49;100.00;99860.94;5138874;28;20597;-66
2021/12/17 03:54:12;;;;;;;36.57;8.10;;;;;;;8.48;100.00;99861.16;5141097;28;20604;-65
2021/12/17 03:56:40;;;;;;;27.33;7.80;;;;;;;8.49;100.00;99858.28;5142366;28;20629;-66
2021/12/17 03:59:10;;;;;;;54.77;8.60;;;;;;;8.51;100.00;99869.53;5140738;28;20627;-66
2021/12/17 04:01:37;;;;;;;72.27;10.97;;;;;;;8.50;100.00;99880.41;5138732;28;20686;-66
2021/12/17 04:04:04;;;;;;;27.63;7.13;;;;;;;8.47;100.00;99881.63;5139820;28;20600;-67
2021/12/17 04:06:31;;;;;;;57.30;10.40;;;;;;;8.48;100.00;99883.25;5142408;28;20603;-66
2021/12/17 04:08:57;;;;;;;58.70;8.20;;;;;;;8.51;100.00;99885.50;5141976;28;20653;-66
2021/12/17 04:11:24;;;;;;;34.47;7.77;;;;;;;8.50;100.00;99886.56;5138657;28;20650;-66
2021/12/17 04:13:56;;;;;;;54.57;8.97;;;;;;;8.47;100.00;99884.28;5138765;28;20612;-66
2021/12/17 04:16:27;;;;;;;44.90;8.60;;;;;;;8.48;100.00;99888.56;5130416;28;20608;-66
2021/12/17 04:18:54;;;;;;;49.20;9.17;;;;;;;8.48;100.00;99877.94;5134413;28;20649;-66
2021/12/17 04:21:21;;;;;;;30.20;8.50;;;;;;;8.50;100.00;99883.88;5138406;28;20609;-65
2021/12/17 04:23:50;;;;;;;48.00;8.83;;;;;;;8.48;100.00;99880.59;5138789;28;20654;-67
2021/12/17 04:26:18;;;;;;;51.00;8.77;;;;;;;8.50;100.00;99886.56;5141580;28;20637;-65
2021/12/17 04:28:47;;;;;;;45.63;8.33;;;;;;;8.46;100.00;99890.63;5142341;28;20618;-66
2021/12/17 04:31:17;;;;;;;27.10;8.57;;;;;;;8.53;100.00;99893.31;5139481;28;20591;-66
2021/12/17 04:33:44;;;;;;;65.00;8.50;;;;;;;8.55;100.00;99889.41;5139096;28;20619;-66
2021/12/17 04:36:14;;;;;;;24.73;7.93;;;;;;;8.51;100.00;99893.50;5144569;27;20668;-66
2021/12/17 04:38:40;;;;;;;42.77;9.80;;;;;;;8.42;100.00;99896.53;5145964;27;20636;-65
2021/12/17 06:16:59;;;;;;;45.50;8.00;;;;;;;8.32;100.00;99923.56;5139505;27;20812;-67
2021/12/17 06:19:26;;;;;;;37.67;8.73;;;;;;;8.32;100.00;99926.22;5143621;28;20615;-66
2021/12/17 06:21:53;;;;;;;22.33;7.23;;;;;;;8.33;100.00;99922.53;5139557;28;20600;-66
2021/12/17 06:24:19;;;;;;;45.97;7.23;;;;;;;8.14;100.00;99912.59;5136008;28;20613;-66
2021/12/17 06:26:46;;;;;;;34.57;7.30;;;;;;;8.15;100.00;99914.25;5135879;28;20655;-67
2021/12/17 06:29:16;;;;;;;37.87;9.30;;;;;;;8.17;100.00;99901.53;5138024;28;20604;-65
2021/12/17 06:31:43;;;;;;;67.97;10.83;;;;;;;8.19;100.00;99904.84;5139400;28;20617;-66
2021/12/17 06:34:11;;;;;;;31.77;7.90;;;;;;;8.16;100.00;99902.59;5137163;28;20618;-66
2021/12/17 06:36:37;;;;;;;44.87;8.73;;;;;;;8.19;100.00;99904.84;5135648;28;20600;-66
2021/12/17 06:39:04;;;;;;;49.50;8.80;;;;;;;8.21;100.00;99913.44;5136562;28;20593;-67
2021/12/17 06:41:31;;;;;;;40.60;7.80;;;;;;;8.17;100.00;99906.88;5138935;28;20592;-66
2021/12/17 06:43:59;;;;;;;57.70;10.07;;;;;;;8.17;100.00;99914.84;5138725;28;20618;-66
2021/12/17 06:46:34;;;;;;;33.73;7.47;;;;;;;8.20;100.00;99911.78;5134045;28;20655;-67
2021/12/17 06:49:18;;;;;;;33.40;6.77;;;;;;;8.25;100.00;99912.03;5135208;28;20643;-67
2021/12/17 06:54:54;;;;;;;33.70;8.00;;;;;;;8.21;100.00;99908.13;5127907;28;20635;-67
2021/12/17 07:00:20;;;;;;;49.60;8.90;;;;;;;8.14;100.00;99901.94;5137646;27;20638;-67
2021/12/17 07:10:59;;;;;;;23.87;5.60;;;;;;;8.13;100.00;99909.13;5138354;28;20594;-67
2021/12/17 07:19:58;;;;;;;30.40;5.97;;;;;;;7.99;100.00;99919.91;5137084;28;21306;-66
2021/12/17 07:22:05;;;;;;;28.30;5.20;;;;;;;8.04;100.00;99918.31;5132278;28;20627;-66
2021/12/17 07:32:53;;;;;;;59.80;6.00;;;;;;;8.13;100.00;99921.63;5119157;28;20616;-66
2021/12/17 07:35:43;;;;;;;49.40;6.47;;;;;;;8.08;100.00;99919.53;5120621;28;20609;-66
2021/12/17 07:40:56;;;;;;;36.60;5.57;;;;;;;8.02;100.00;99920.31;5124692;28;20600;-67
2021/12/17 07:43:27;;;;;;;19.93;3.63;;;;;;;8.04;100.00;99915.66;5112206;28;20688;-66
2021/12/17 07:45:56;;;;;;;49.63;5.67;;;;;;;8.10;100.00;99922.00;5120300;28;20751;-66
2021/12/17 07:48:23;;;;;;;48.60;6.33;;;;;;;8.05;100.00;99935.91;5112415;28;20650;-66
2021/12/17 07:50:51;;;;;;;37.60;4.43;;;;;;;8.07;100.00;99930.38;5115953;28;20597;-66
2021/12/17 07:53:20;;;;;;;19.60;4.23;;;;;;;8.03;100.00;99932.63;5123313;28;20598;-67
2021/12/17 07:55:46;;;;;;;57.13;6.67;;;;;;;8.04;100.00;99934.28;5123644;28;20620;-66
2021/12/17 07:58:14;;;;;;;39.63;5.63;;;;;;;8.02;100.00;99930.13;5121044;28;20596;-66
2021/12/17 08:00:41;;;;;;;57.70;6.57;;;;;;;8.02;100.00;99924.81;5120156;28;20609;-66
2021/12/17 08:03:08;;;;;;;51.47;7.60;;;;;;;7.89;100.00;99922.91;5121478;28;20616;-67
2021/12/17 08:05:35;;;;;;;33.63;5.53;;;;;;;7.63;100.00;99927.25;5123347;28;20635;-66
2021/12/17 08:08:02;;;;;;;19.30;4.27;;;;;;;7.55;100.00;99929.03;5122635;28;21203;-66
2021/12/17 08:10:30;;;;;;;46.90;6.20;;;;;;;7.35;100.00;99933.41;5119803;28;20628;-66
2021/12/17 08:12:57;;;;;;;51.63;6.07;;;;;;;7.54;100.00;99943.38;5120009;28;20621;-66
2021/12/17 08:15:31;;;;;;;36.93;6.67;;;;;;;7.70;100.00;99936.13;5123069;28;20632;-65
2021/12/17 08:18:26;;;;;;;53.03;6.73;;;;;;;7.72;100.00;99918.94;5123196;28;20610;-66
2021/12/17 08:26:25;;;;;;;17.67;4.27;;;;;;;7.76;100.00;99927.34;5122768;28;20632;-66
2021/12/17 08:29:11;;;;;;;43.93;6.50;;;;;;;7.83;100.00;99917.59;5122945;28;20609;-67
2021/12/17 08:31:39;;;;;;;55.53;6.00;;;;;;;7.80;100.00;99912.66;5113282;28;20642;-66
2021/12/17 08:34:06;;;;;;;40.07;5.40;;;;;;;7.78;100.00;99917.31;5120635;28;20643;-66
2021/12/17 08:36:33;;;;;;;26.10;5.10;;;;;;;7.81;100.00;99911.63;5123038;28;20618;-66
2021/12/17 08:39:00;;;;;;;53.17;6.70;;;;;;;7.94;100.00;99923.16;5120338;28;20649;-66
2021/12/17 08:41:28;;;;;;;67.77;7.10;;;;;;;7.95;100.00;99918.66;5119183;28;20609;-66
2021/12/17 08:43:55;;;;;;;47.03;7.13;;;;;;;7.89;100.00;99930.09;5119156;28;20611;-66
2021/12/17 08:46:21;;;;;;;38.77;5.90;;;;;;;7.86;100.00;99930.50;5122366;28;20647;-66
2021/12/17 08:48:49;;;;;;;70.90;7.27;;;;;;;7.87;100.00;99919.63;5122563;28;20645;-65
2021/12/17 08:51:17;;;;;;;42.97;5.90;;;;;;;7.92;100.00;99914.53;5122712;28;20609;-67
2021/12/17 08:53:43;;;;;;;44.30;6.43;;;;;;;7.97;100.00;99911.28;5122712;28;20635;-66
2021/12/17 08:56:13;;;;;;;49.43;6.80;;;;;;;7.98;100.00;99912.94;5120417;28;20604;-65
2021/12/17 08:58:40;;;;;;;44.70;6.30;;;;;;;7.89;100.00;99903.50;5118869;28;20612;-66
2021/12/17 09:01:07;;;;;;;59.63;6.87;;;;;;;7.91;100.00;99906.75;5120347;28;20670;-67
2021/12/17 09:03:34;;;;;;;46.43;5.90;;;;;;;7.95;100.00;99913.34;5122278;28;20681;-66
2021/12/17 09:06:03;;;;;;;85.03;8.43;;;;;;;7.97;100.00;99937.91;5121530;28;20627;-66
2021/12/17 09:08:30;;;;;;;72.03;8.07;;;;;;;7.94;100.00;99938.31;5118576;28;20593;-66
2021/12/17 09:10:56;;;;;;;55.30;6.70;;;;;;;8.06;100.00;99934.06;5118674;28;20590;-66
2021/12/17 09:13:25;;;;;;;67.60;7.37;;;;;;;8.04;100.00;99925.47;5110160;28;20589;-66
2021/12/17 09:15:53;;;;;;;75.30;7.20;;;;;;;8.01;100.00;99932.00;5118366;28;20671;-67
2021/12/17 09:18:20;;;;;;;58.57;5.73;;;;;;;7.81;100.00;99928.41;5121569;28;20604;-66
2021/12/17 09:20:47;;;;;;;111.47;10.30;;;;;;;7.51;100.00;99933.13;5123108;28;20654;-66
2021/12/17 09:23:15;;;;;;;59.77;6.33;;;;;;;7.52;100.00;99933.97;5120549;28;20616;-66
2021/12/17 09:25:42;;;;;;;111.27;9.27;;;;;;;7.19;100.00;99932.84;5121702;28;20625;-67
2021/12/17 09:28:08;;;;;;;57.53;6.90;;;;;;;7.48;100.00;99930.88;5120187;28;20592;-66
2021/12/17 09:30:35;;;;;;;65.30;6.90;;;;;;;7.68;100.00;99930.16;5118631;28;21010;-66
2021/12/17 09:33:02;;;;;;;63.47;7.30;;;;;;;7.71;100.00;99930.59;5119075;28;20944;-65
2021/12/17 09:35:28;;;;;;;32.67;5.10;;;;;;;7.63;100.00;99927.25;5120720;28;21155;-66
2021/12/17 09:37:55;;;;;;;120.43;9.50;;;;;;;7.41;100.00;99932.63;5121758;28;20590;-66
2021/12/17 09:40:23;;;;;;;45.27;6.37;;;;;;;7.09;100.00;99932.38;5118325;28;20609;-66
2021/12/17 09:42:50;;;;;;;54.23;5.27;;;;;;;7.30;100.00;99945.66;5118317;28;20600;-66
2021/12/17 09:45:19;;;;;;;38.93;6.03;;;;;;;7.51;100.00;99932.31;5120758;28;21479;-66
2021/12/17 09:47:47;;;;;;;99.80;8.40;;;;;;;7.70;100.00;99928.13;5121603;28;20627;-66
2021/12/17 09:50:16;;;;;;;49.27;6.10;;;;;;;7.90;100.00;99921.06;5112605;28;20601;-66
2021/12/17 09:52:42;;;;;;;49.83;6.90;;;;;;;8.02;100.00;99922.16;5121668;28;20601;-66
2021/12/17 09:55:10;;;;;;;63.10;6.90;;;;;;;8.06;100.00;99926.06;5119500;28;20624;-67
2021/12/17 09:57:38;;;;;;;110.30;10.03;;;;;;;8.10;100.00;99925.50;5117873;28;20628;-66
2021/12/17 10:00:07;;;;;;;39.47;7.00;;;;;;;8.11;100.00;99926.28;5119003;28;20626;-66
2021/12/17 10:02:34;;;;;;;45.93;6.33;;;;;;;8.07;100.00;99927.72;5121456;28;20601;-67
2021/12/17 10:05:01;;;;;;;57.37;7.87;;;;;;;8.15;100.00;99924.88;5120897;28;20613;-67
2021/12/17 10:07:31;;;;;;;51.47;6.87;;;;;;;8.13;100.00;99937.59;5117816;28;20606;-65
2021/12/17 10:09:59;;;;;;;132.13;10.40;;;;;;;7.97;100.00;99922.75;5117589;28;20613;-66
2021/12/17 10:12:27;;;;;;;52.03;7.60;;;;;;;8.04;100.00;99926.28;5120946;28;20611;-67
2021/12/17 10:15:10;;;;;;;60.80;7.30;;;;;;;8.09;100.00;99920.34;5120982;28;20638;-66
2021/12/17 10:17:51;;;;;;;25.40;5.63;;;;;;;8.10;100.00;99925.50;5111593;28;20663;-67
2021/12/17 10:20:18;;;;;;;27.17;7.30;;;;;;;8.10;100.00;99917.50;5126096;28;20609;-66
2021/12/17 10:22:45;;;;;;;32.03;5.80;;;;;;;7.96;100.00;99920.28;5117772;28;20608;-66
2021/12/17 10:25:12;;;;;;;35.80;8.07;;;;;;;7.28;100.00;99927.22;5119716;28;20601;-66
2021/12/17 10:27:41;;;;;;;45.33;7.17;;;;;;;7.32;100.00;99932.97;5121452;28;20588;-66
2021/12/17 10:30:15;;;;;;;53.83;7.03;;;;;;;7.38;100.00;99938.34;5119704;28;20607;-66
2021/12/17 10:32:44;;;;;;;40.13;6.50;;;;;;;7.53;100.00;99939.06;5117937;28;20631;-66
2021/12/17 10:35:12;;;;;;;56.57;7.70;;;;;;;7.75;100.00;99937.16;5119808;28;20647;-66
2021/12/17 10:37:42;;;;;;;62.53;8.53;;;;;;;7.19;100.00;99932.84;5121129;28;20644;-66
2021/12/17 10:40:19;;;;;;;24.27;7.83;;;;;;;7.37;100.00;99939.34;5119483;28;20619;-66
2021/12/17 10:42:58;;;;;;;56.20;9.37;;;;;;;7.66;100.00;99934.84;5117906;28;20609;-67
2021/12/17 10:45:29;;;;;;;101.57;11.00;;;;;;;7.89;100.00;99932.75;5109332;28;20732;-65
2021/12/17 11:12:42;;;;;;;46.67;9.50;;;;;;;7.87;100.00;99929.44;5106203;28;20795;-63
2021/12/17 11:15:21;;;;;;;52.93;9.63;;;;;;;7.94;100.00;99928.47;5099714;28;20596;-63
2021/12/17 11:17:50;;;;;;;51.40;9.13;;;;;;;7.95;100.00;99926.66;5100022;28;20601;-63
2021/12/17 11:20:19;;;;;;;39.93;9.23;;;;;;;8.06;100.00;99936.72;5112673;28;20608;-63
2021/12/17 11:22:47;;;;;;;47.00;8.57;;;;;;;7.99;100.00;99923.38;5099846;28;20919;-63
2021/12/17 11:25:16;;;;;;;45.60;9.60;;;;;;;7.73;100.00;99914.44;5101797;28;20601;-63
2021/12/17 11:27:44;;;;;;;72.20;11.30;;;;;;;7.78;100.00;99917.31;5103206;28;20605;-63
2021/12/17 11:30:15;;;;;;;43.00;7.83;;;;;;;7.73;100.00;99917.09;5101191;28;20605;-63
2021/12/17 11:32:44;;;;;;;38.10;7.87;;;;;;;7.48;100.00;99911.41;5099676;28;20605;-63
2021/12/17 11:35:12;;;;;;;49.13;8.23;;;;;;;7.56;100.00;99895.31;5101452;28;20602;-63
2021/12/17 11:37:41;;;;;;;78.80;10.47;;;;;;;7.63;100.00;99896.19;5103075;28;20592;-63
2021/12/17 11:40:13;;;;;;;61.43;9.43;;;;;;;7.52;100.00;99891.41;5101467;28;20634;-63
2021/12/17 11:43:01;;;;;;;85.70;11.47;;;;;;;7.03;100.00;99897.56;5099563;28;20586;-64
2021/12/17 11:45:29;;;;;;;70.73;10.57;;;;;;;7.07;100.00;99898.03;5099175;28;20613;-63
2021/12/17 11:48:12;;;;;;;64.73;12.37;;;;;;;7.38;100.00;99897.66;5099411;28;20609;-63
2021/12/17 11:50:39;;;;;;;30.70;9.17;;;;;;;7.53;100.00;99885.88;5108433;28;20992;-63
2021/12/17 11:53:18;;;;;;;53.57;8.20;;;;;;;7.71;100.00;99895.19;5101555;28;20605;-63
2021/12/17 11:55:47;;;;;;;62.10;11.00;;;;;;;7.43;100.00;99887.25;5099299;28;21000;-63
2021/12/17 11:58:35;;;;;;;52.07;10.40;;;;;;;7.15;100.00;99891.75;5101433;28;20590;-63
2021/12/17 12:01:01;;;;;;;69.00;12.27;;;;;;;7.03;100.00;99916.19;5101806;28;20628;-63
2021/12/17 12:03:28;;;;;;;54.77;9.37;;;;;;;6.97;100.00;99924.91;5099276;28;20622;-64
2021/12/17 12:05:59;;;;;;;55.47;10.80;;;;;;;7.16;100.00;99910.16;5099308;28;20604;-63
2021/12/17 12:08:31;;;;;;;52.07;9.40;;;;;;;7.13;100.00;99902.56;5099058;28;20617;-63
2021/12/17 12:11:07;;;;;;;87.33;12.50;;;;;;;7.00;100.00;99905.09;5099060;28;20621;-63
2021/12/17 12:13:38;;;;;;;32.30;8.90;;;;;;;7.28;100.00;99905.94;5102603;28;20596;-63
2021/12/17 12:16:06;;;;;;;68.27;10.43;;;;;;;7.19;100.00;99907.13;5101201;28;20600;-63
2021/12/17 12:18:42;;;;;;;74.43;11.07;;;;;;;7.25;100.00;99902.84;5100865;28;20659;-63
2021/12/17 12:21:09;;;;;;;64.27;9.90;;;;;;;7.35;100.00;99909.50;5103939;28;20609;-63
2021/12/17 12:23:56;;;;;;;48.40;9.00;;;;;;;7.38;100.00;99890.50;5090942;28;20597;-63
2021/12/17 12:26:25;;;;;;;56.87;8.93;;;;;;;7.36;100.00;99892.53;5085320;28;20671;-64
2021/12/17 12:28:58;;;;;;;60.40;10.70;;;;;;;7.20;100.00;99902.63;5085512;28;20633;-64
2021/12/17 12:31:54;;;;;;;51.27;11.37;;;;;;;6.81;100.00;99897.78;5085297;28;20626;-63
2021/12/17 12:34:28;;;;;;;56.20;10.90;;;;;;;6.62;100.00;99901.91;5088540;28;20598;-63
2021/12/17 12:36:57;;;;;;;66.73;11.63;;;;;;;6.74;100.00;99903.06;5088672;28;20609;-64
2021/12/17 12:39:25;;;;;;;89.90;12.27;;;;;;;7.01;100.00;99902.28;5088377;28;20636;-63
2021/12/17 12:42:05;;;;;;;78.53;11.53;;;;;;;7.05;100.00;99903.53;5088193;28;20647;-64
2021/12/17 12:45:12;;;;;;;73.17;12.37;;;;;;;7.39;100.00;99902.78;5076482;28;20660;-64
2021/12/17 12:47:45;;;;;;;36.93;8.53;;;;;;;7.40;100.00;99899.09;5076867;28;20610;-64
2021/12/17 12:50:14;;;;;;;67.30;12.37;;;;;;;7.22;100.00;99906.72;5080714;28;20610;-63
2021/12/17 12:52:45;;;;;;;74.63;11.53;;;;;;;7.43;100.00;99908.50;5085047;28;20598;-64
2021/12/17 12:55:19;;;;;;;45.80;10.93;;;;;;;7.60;100.00;99896.56;5086749;28;20611;-64
2021/12/17 12:57:48;;;;;;;76.53;11.00;;;;;;;7.53;100.00;99875.25;5088165;28;20635;-63
2021/12/17 13:00:20;;;;;;;77.07;13.27;;;;;;;7.32;100.00;99880.63;5085291;28;20617;-63
2021/12/17 13:02:50;;;;;;;72.00;11.20;;;;;;;7.09;100.00;99888.00;5084569;28;20632;-63
2021/12/17 13:05:17;;;;;;;57.13;12.20;;;;;;;7.31;100.00;99884.31;5086976;28;20636;-63
2021/12/17 13:07:47;;;;;;;77.30;11.27;;;;;;;7.55;100.00;99878.53;5087827;28;20624;-63
2021/12/17 13:10:16;;;;;;;92.27;13.13;;;;;;;7.67;100.00;99880.66;5085239;28;20609;-63
2021/12/17 13:12:49;;;;;;;68.33;12.13;;;;;;;7.51;100.00;99874.63;5084180;28;20621;-63
2021/12/17 13:15:30;;;;;;;52.43;10.53;;;;;;;7.42;100.00;99865.19;5086571;28;20610;-63
2021/12/17 13:21:04;;;;;;;95.17;14.10;;;;;;;7.11;100.00;99871.91;5093023;28;20603;-63
2021/12/17 13:23:37;;;;;;;60.60;10.93;;;;;;;7.33;100.00;99871.66;5084116;28;20610;-63
2021/12/17 13:26:09;;;;;;;82.40;12.23;;;;;;;7.14;100.00;99874.16;5084806;28;20602;-63
2021/12/17 13:28:52;;;;;;;76.43;13.10;;;;;;;6.80;100.00;99875.72;5087422;28;20663;-63
2021/12/17 13:31:39;;;;;;;81.53;13.63;;;;;;;6.95;100.00;99875.66;5084392;28;20598;-63
2021/12/17 13:34:08;;;;;;;59.90;11.30;;;;;;;7.33;100.00;99858.38;5084012;28;20607;-63
2021/12/17 13:36:35;;;;;;;81.77;12.60;;;;;;;7.14;100.00;99860.88;5087270;28;21268;-63
2021/12/17 13:39:02;;;;;;;83.57;11.53;;;;;;;7.22;100.00;99866.03;5086650;28;20606;-63
2021/12/17 13:41:41;;;;;;;64.60;11.27;;;;;;;7.19;100.00;99861.09;5083780;28;20626;-63
2021/12/17 13:44:30;;;;;;;75.03;10.03;;;;;;;7.13;100.00;99867.19;5084921;28;20602;-63
2021/12/17 13:47:26;;;;;;;39.03;7.80;;;;;;;7.43;100.00;99863.31;5087293;28;20613;-63
2021/12/17 13:49:57;;;;;;;69.00;9.00;;;;;;;7.54;100.00;99863.63;5092143;28;20639;-63
2021/12/17 13:52:27;;;;;;;29.17;7.37;;;;;;;7.63;100.00;99858.94;5083637;28;20632;-63
2021/12/17 13:54:56;;;;;;;48.83;7.70;;;;;;;7.61;100.00;99869.75;5083794;28;20617;-63
2021/12/17 13:57:24;;;;;;;38.43;7.23;;;;;;;7.52;100.00;99870.94;5083606;28;20640;-63
2021/12/17 13:59:51;;;;;;;56.57;8.77;;;;;;;7.61;100.00;99875.09;5083803;28;20633;-63
2021/12/17 14:02:21;;;;;;;54.07;7.03;;;;;;;7.75;100.00;99875.16;5086262;28;20601;-63
2021/12/17 14:05:03;;;;;;;88.20;10.10;;;;;;;7.80;100.00;99876.22;5087170;28;20624;-64
2021/12/17 14:07:31;;;;;;;50.67;8.30;;;;;;;7.50;100.00;99870.31;5083320;28;20617;-63
2021/12/17 14:10:05;;;;;;;42.83;6.53;;;;;;;7.03;100.00;99876.31;5083591;28;20599;-63
2021/12/17 14:12:33;;;;;;;45.17;7.60;;;;;;;6.88;100.00;99878.25;5086784;28;20641;-64
2021/12/17 14:15:02;;;;;;;36.80;7.67;;;;;;;6.46;100.00;99884.38;5086532;28;20628;-63
2021/12/17 14:17:38;;;;;;;29.57;6.23;;;;;;;6.43;100.00;99879.47;5083317;28;20657;-63
2021/12/17 14:20:10;;;;;;;52.23;8.50;;;;;;;6.64;100.00;99881.28;5096041;28;20620;-63
2021/12/17 14:22:38;;;;;;;76.10;8.90;;;;;;;6.76;100.00;99882.44;5083341;28;20656;-63
2021/12/17 14:25:32;;;;;;;68.90;7.90;;;;;;;7.05;100.00;99884.13;5083993;28;20618;-63
2021/12/17 14:28:01;;;;;;;58.97;7.30;;;;;;;6.70;100.00;99887.66;5085100;28;20594;-63
2021/12/17 14:30:33;;;;;;;53.57;8.20;;;;;;;6.60;100.00;99889.81;5083019;28;20648;-63
2021/12/17 14:33:07;;;;;;;53.20;7.60;;;;;;;6.46;100.00;99879.09;5083220;28;20618;-64
2021/12/17 14:35:45;;;;;;;77.37;8.90;;;;;;;6.89;100.00;99884.38;5086271;28;21188;-63
2021/12/17 14:38:13;;;;;;;82.67;9.60;;;;;;;6.65;100.00;99877.63;5083925;28;20601;-64
2021/12/17 14:40:45;;;;;;;97.77;10.43;;;;;;;6.48;100.00;99876.22;5082697;28;20602;-64
2021/12/17 14:43:19;;;;;;;100.57;11.37;;;;;;;6.30;100.00;99874.00;5084520;28;20598;-64
2021/12/17 14:46:00;;;;;;;108.90;10.60;;;;;;;5.90;100.00;99885.16;5085759;28;20604;-64
2021/12/17 14:48:37;;;;;;;48.27;7.63;;;;;;;6.73;100.00;99868.72;5082974;28;20607;-64
2021/12/17 15:02:26;;;;;;;55.03;8.40;;;;;;;7.52;100.00;99865.63;5084567;28;20601;-64
2021/12/17 15:04:54;;;;;;;42.07;6.10;;;;;;;7.66;100.00;99863.06;5082617;28;20630;-64
2021/12/17 15:07:23;;;;;;;49.27;7.97;;;;;;;7.76;100.00;99858.19;5085529;28;20663;-64
2021/12/17 15:09:50;;;;;;;84.83;10.30;;;;;;;7.82;100.00;99852.09;5085859;28;20605;-64
2021/12/17 15:12:37;;;;;;;45.83;6.23;;;;;;;7.85;100.00;99847.19;5082953;28;20605;-64
2021/12/17 15:15:08;;;;;;;80.90;9.73;;;;;;;7.79;100.00;99850.66;5082874;28;20614;-64
2021/12/17 15:17:35;;;;;;;68.03;8.20;;;;;;;7.79;100.00;99839.19;5085696;28;20594;-64
2021/12/17 15:20:04;;;;;;;51.80;7.13;;;;;;;7.76;100.00;99845.72;5092920;28;20612;-63
2021/12/17 15:22:31;;;;;;;76.63;8.27;;;;;;;7.80;100.00;99835.50;5082048;28;20618;-63
2021/12/17 15:24:57;;;;;;;96.97;10.23;;;;;;;7.78;100.00;99838.34;5082089;28;20625;-63
2021/12/17 15:27:24;;;;;;;69.93;9.13;;;;;;;7.77;100.00;99833.25;5082033;28;20621;-63
2021/12/17 15:29:51;;;;;;;114.80;10.37;;;;;;;7.76;100.00;99834.25;5082073;28;20610;-64
2021/12/17 15:32:18;;;;;;;107.97;10.63;;;;;;;7.69;100.00;99834.22;5084443;28;20602;-64
2021/12/17 15:34:44;;;;;;;74.97;8.47;;;;;;;7.44;100.00;99822.44;5085380;28;20618;-64
2021/12/17 15:37:12;;;;;;;96.23;9.80;;;;;;;7.44;100.00;99833.88;5083388;28;20613;-64